Latest Coastal Weather Observations for Learmonth

IDW60701

Issued at 8:42 pm WST Tuesday 31 March 2015 (issued every 10 minutes, with the page automatically refreshed every 10 minutes)

About coastal observations | Map of coastal stations | Coastal observations for WA | Marine services | Other Formats
Station Details ID: 005007 Name: LEARMONTH AIRPORT Lat: -22.24 Lon: 114.10 Height: 5.0 m
Data from the previous 72 hours. | See also: Recent months at Learmonth
Date/Time
WST
Temp

°C
Wind Pressure Rain
since 9am
mm
Weather Cloud Vis
km
Sea
Height
m
Swell
Dir
 
Speed
knots
Gust
knots
hPa Trend Height
m
Period
s
Dir
31/08:30pm 24.1 SW 10 13 1014.8 - 0.0 - - - - - - -
31/08:00pm 24.2 SSW 10 12 1014.5 - 0.0 - - - - - - -
31/07:30pm 24.6 SSW 10 13 1014.1 - 0.0 - - - - - - -
31/07:00pm 25.3 SSW 9 11 1013.9 - 0.0 - - - - - - -
31/06:30pm 26.1 S 8 10 1013.5 - 0.0 - - - - - - -
31/06:00pm 27.6 SSE 10 14 1013.0 - 0.0 - - - - - - -
31/05:30pm 28.3 SSE 12 16 1012.7 - 0.0 - - - - - - -
31/05:00pm 28.5 SSE 13 18 1012.7 - 0.0 - - - - - - -
31/04:30pm 29.5 SSE 13 18 1012.5 - 0.0 - Partly cloudy - - - - -
31/04:00pm 29.4 S 11 18 1012.4 - 0.0 - Partly cloudy - - - - -
31/03:30pm 29.3 S 12 16 1012.4 - 0.0 - Partly cloudy - - - - -
31/03:00pm 29.8 SSW 11 16 1012.4 R 0.0 Fine Partly cloudy 30 - - - -
31/02:00pm 29.4 S 11 15 1013.0 - 0.0 - Mostly clear 10 - - - -
31/01:30pm 28.7 S 12 17 1013.1 - 0.0 - Mostly clear 10 - - - -
31/01:00pm 28.1 SSW 13 18 1013.4 - 0.0 - Partly cloudy 10 - - - -
31/12:00pm 26.0 SSW 11 15 1014.2 R 0.0 Fine Mostly cloudy 30 - - - -
31/11:30am 26.1 SSW 11 14 1014.8 - 0.0 - Mostly clear 10 - - - -
31/11:00am 25.5 S 9 14 1015.0 - 0.0 - Mostly clear 10 - - - -
31/10:30am 25.0 S 9 13 1015.0 - 0.0 - Mostly clear 10 - - - -
31/10:00am 24.3 SSW 10 14 1015.1 - 0.0 - Mostly clear 10 - - - -
31/09:30am 24.4 S 11 13 1015.2 - 0.0 - Mostly clear 10 - - - -
31/09:00am 24.1 S 9 11 1014.8 R 27.0 Fine Mostly cloudy 30 - - - -
31/08:30am 23.2 S 9 11 1014.7 - 27.0 - Mostly clear 10 - - - -
31/08:00am 22.4 S 10 12 1014.4 - 27.0 - Mostly clear 10 - - - -
31/07:30am 22.3 SSW 9 11 1014.0 - 27.0 - Mostly clear 10 - - - -
31/07:00am 22.2 S 8 10 1013.9 - 27.0 - Mostly clear 10 - - - -
31/06:30am 22.2 SSW 7 9 1013.6 - 27.0 - Mostly clear 10 - - - -
31/06:00am 23.3 ENE 8 9 1012.4 F 27.0 Fine Mostly cloudy 30 - - - -
31/05:34am 22.6 SW 5 6 1013.1 - 27.0 - Partly cloudy - - - - -
31/05:30am 22.6 SW 6 7 1013.0 - 27.0 - Partly cloudy - - - - -
31/05:00am 23.9 E 7 10 1012.8 - 27.0 - Partly cloudy - - - - -
31/04:30am 24.0 E 9 11 1012.6 - 27.0 - Partly cloudy - - - - -
31/04:00am 24.2 E 10 12 1012.4 - 27.0 - Partly cloudy - - - - -
31/03:30am 23.5 ENE 5 8 1012.3 - 27.0 - - - - - - -
31/03:00am 23.3 ENE 8 10 1012.4 - 27.0 - Mostly clear - - - - -
31/02:30am 23.1 ENE 7 10 1012.6 - 27.0 - Partly cloudy - - - - -
31/02:00am 22.9 ENE 7 9 1012.8 - 27.0 - Partly cloudy - - - - -
31/01:53am 22.8 ENE 7 9 1012.9 - 27.0 - Partly cloudy - - - - -
31/01:30am 22.9 E 7 9 1013.1 - 27.0 - Partly cloudy - - - - -
31/01:04am 22.6 ESE 5 8 1013.2 - 27.0 - Partly cloudy - - - - -
31/01:00am 22.6 ESE 6 8 1013.2 - 27.0 - Partly cloudy - - - - -
31/12:30am 22.0 ESE 2 6 1013.5 - 27.0 - - - - - - -
31/12:00am 21.8 S 2 4 1013.4 - 27.0 - Mostly clear - - - - -
 
Date/Time
WST
Temp

°C
Wind Pressure Rain
since 9am
mm
Weather Cloud Vis
km
Sea
Height
m
Swell
Dir
 
Speed
knots
Gust
knots
hPa Trend Height
m
Period
s
Dir
30/11:30pm 22.2 SE 5 7 1013.9 - 27.0 - - - - - - -
30/11:00pm 22.3 SE 9 11 1014.3 - 27.0 - Partly cloudy - - - - -
30/10:30pm 22.3 SSE 11 16 1014.7 - 27.0 - Partly cloudy - - - - -
30/10:00pm 22.3 SSE 12 16 1014.7 - 27.0 - Partly cloudy - - - - -
30/09:30pm 22.3 SSE 11 15 1014.7 - 27.0 - Partly cloudy - - - - -
30/09:00pm 22.4 SSE 13 17 1014.5 - 27.0 - Mostly cloudy - - - - -
30/08:30pm 22.6 SSE 13 17 1014.9 - 26.8 - Partly cloudy - - - - -
30/08:00pm 22.8 SE 16 20 1015.0 - 26.8 - Partly cloudy - - - - -
30/07:30pm 22.7 SSE 14 18 1014.9 - 26.8 - Partly cloudy - - - - -
30/07:15pm 22.7 SE 14 18 1014.6 - 26.8 - Partly cloudy - - - - -
30/07:00pm 22.8 SE 15 19 1014.3 - 26.8 - Partly cloudy - - - - -
30/06:30pm 23.0 SE 12 17 1014.1 - 26.4 - Partly cloudy - - - - -
30/06:00pm 23.3 SE 14 17 1013.4 - 25.0 - Cloudy - - - - -
30/05:57pm 23.3 SE 14 19 1013.5 - 25.0 - Partly cloudy - - - - -
30/05:30pm 23.5 SE 16 22 1013.2 - 25.0 - Partly cloudy - - - - -
30/05:05pm 23.4 SE 18 23 1012.7 - 25.0 - Partly cloudy - - - - -
30/05:00pm 23.3 SE 19 24 1012.5 - 25.0 - Partly cloudy - - - - -
30/04:30pm 23.4 SSE 16 21 1012.5 - 24.8 - Partly cloudy - - - - -
30/04:19pm 23.4 SSE 17 22 1012.6 - 24.6 - Partly cloudy - - - - -
30/04:00pm 23.4 SE 19 25 1012.1 - 24.6 - Partly cloudy - - - - -
30/03:30pm 23.3 SSE 16 21 1012.0 - 24.6 - Partly cloudy - - - - -
30/03:08pm 23.0 SSE 16 21 1012.2 - 24.2 - Partly cloudy - - - - -
30/03:00pm 23.1 S 15 22 1012.6 R 24.0 Rain Cloudy 8 - - - -
30/02:35pm 23.0 SSE 15 25 1011.9 - 23.2 Rain Mostly clear 2 - - - -
30/02:30pm 23.1 SSE 13 18 1012.5 - 22.4 Rain Mostly clear 2 - - - -
30/02:00pm 22.9 S 13 16 1012.5 - 19.4 Rain Mostly clear 2 - - - -
30/01:30pm 22.6 S 12 16 1013.3 - 16.0 Rain Mostly clear 2 - - - -
30/01:00pm 22.7 S 13 16 1013.7 - 12.6 Rain Partly cloudy 0.8 - - - -
30/12:30pm 22.9 S 11 15 1014.0 - 10.4 Rain Partly cloudy 0.4 - - - -
30/12:16pm 22.9 SSE 11 15 1014.2 - 9.4 Rain Partly cloudy 1 - - - -
30/12:00pm 23.0 SSE 11 14 1014.5 R 8.2 Rain Cloudy 4 - - - -
30/11:30am 23.2 SSE 16 19 1014.5 - 7.2 Rain Mostly cloudy 3 - - - -
30/11:24am 23.3 SE 14 19 1014.8 - 6.0 Rain Cloudy 0.2 - - - -
30/11:00am 23.7 SSE 15 18 1015.1 - 3.4 Rain Partly cloudy 5 - - - -
30/10:30am 23.9 SE 13 16 1015.2 - 3.2 Rain Mostly clear 10 - - - -
30/10:14am 24.5 SE 7 9 1014.9 - 3.2 Rain Mostly clear 10 - - - -
30/10:00am 24.2 E 5 7 1015.1 - 2.8 Rain Mostly clear 7 - - - -
30/09:30am 24.0 NE 5 8 1015.3 - 1.0 Rain Partly cloudy 4 - - - -
30/09:24am 24.0 ENE 6 9 1015.1 - 0.4 Showers Partly cloudy 5 - - - -
30/09:00am 24.0 NE 7 9 1015.0 R 16.8 Showers Cloudy 10 - - - -
30/08:30am 23.1 NNE 7 10 1015.2 - 16.8 - Mostly clear 10 - - - -
30/08:16am 23.0 NE 11 17 1014.6 - 16.8 Showers Mostly clear 5 - - - -
30/08:00am 24.1 ENE 12 21 1014.6 - 8.0 Showers Partly cloudy 0.1 - - - -
30/07:52am 24.9 NE 10 14 1014.5 - 1.2 Showers Mostly cloudy 0.3 - - - -
30/07:30am 24.8 S 11 14 1013.4 - 0.6 - Mostly clear 10 - - - -
30/07:00am 24.8 SSE 12 15 1013.3 - 0.6 - Mostly clear 10 - - - -
30/06:30am 24.8 SE 9 13 1012.9 - 0.6 - Partly cloudy 10 - - - -
30/06:00am 24.6 SSE 6 8 1012.2 F 0.6 Distant precip. Cloudy 20 - - - -
30/05:30am 24.6 SSW 4 5 1012.0 - 0.6 - Partly cloudy - - - - -
30/05:00am 24.5 WSW 4 6 1011.6 - 0.6 - - - - - - -
30/04:30am 24.2 WSW 7 8 1011.1 - 0.6 - - - - - - -
30/04:00am 24.1 S 5 9 1011.1 - 0.6 - Partly cloudy - - - - -
30/03:30am 24.7 NNE 9 13 1011.7 - 0.4 - Partly cloudy - - - - -
30/03:00am 26.7 ENE 15 19 1012.1 - 0.0 - - - - - - -
30/02:30am 26.4 ENE 14 19 1012.4 - 0.0 - Partly cloudy - - - - -
30/02:00am 26.7 NE 10 17 1012.6 - 0.0 - Partly cloudy - - - - -
30/01:30am 26.4 NE 12 15 1012.8 - 0.0 - Partly cloudy - - - - -
30/01:00am 27.6 NE 14 19 1013.0 - 0.0 - - - - - - -
30/12:30am 27.9 NE 12 16 1013.3 - 0.0 - Partly cloudy - - - - -
30/12:00am 28.3 NE 11 15 1013.4 - 0.0 - Partly cloudy - - - - -
 
Date/Time
WST
Temp

°C
Wind Pressure Rain
since 9am
mm
Weather Cloud Vis
km
Sea
Height
m
Swell
Dir
 
Speed
knots
Gust
knots
hPa Trend Height
m
Period
s
Dir
29/11:30pm 28.6 NNE 12 16 1013.6 - 0.0 - Partly cloudy - - - - -
29/11:00pm 29.0 NE 13 16 1013.8 - 0.0 - Partly cloudy - - - - -
29/10:30pm 28.3 N 7 8 1013.8 - 0.0 - Partly cloudy - - - - -
29/10:00pm 27.8 N 5 6 1013.7 - 0.0 - Partly cloudy - - - - -
29/09:30pm 27.6 NNE 6 7 1013.9 - 0.0 - Partly cloudy - - - - -
29/09:00pm 27.6 SW 1 4 1013.4 - 0.0 - - - - - - -
29/08:30pm 28.0 SW 3 5 1013.2 - 0.0 - - - - - - -
29/08:00pm 28.7 W 6 8 1012.8 - 0.0 - - - - - - -
29/07:30pm 28.7 SW 8 9 1012.4 - 0.0 - - - - - - -
29/07:00pm 28.9 W 5 6 1011.8 - 0.0 - - - - - - -
29/06:30pm 29.0 NNW 4 5 1011.6 - 0.0 - - - - - - -
29/06:00pm 30.1 NNE 3 4 1011.1 - 0.0 - - - - - - -
29/05:30pm 30.8 N 4 5 1011.2 - 0.0 - - - - - - -
29/05:00pm 31.7 N 5 6 1011.0 - 0.0 - - - - - - -
29/04:30pm 31.7 NNE 7 9 1010.7 - 0.0 - - - - - - -
29/04:00pm 33.4 N 6 9 1010.8 - 0.0 - - - - - - -
29/03:30pm 33.7 NNW 3 7 1010.9 - 0.0 - - - - - - -
29/03:00pm 33.0 N 6 7 1010.9 - 0.0 - - - - - - -
29/02:30pm 32.7 N 6 8 1011.4 - 0.0 - - - - - - -
29/02:00pm 32.3 N 5 7 1011.5 - 0.0 - - - - - - -
29/01:30pm 32.2 NNE 5 7 1011.9 - 0.0 - - - - - - -
29/01:00pm 31.8 N 3 6 1012.2 - 0.0 - - - - - - -
29/12:30pm 31.2 CALM 0 0 1012.3 - 0.0 - - - - - - -
29/12:00pm 30.1 E 4 7 1012.6 - 0.0 - - - - - - -
29/11:30am 30.6 E 7 10 1012.9 - 0.0 - - - - - - -
29/11:00am 29.7 ESE 7 9 1013.1 - 0.0 - - - - - - -
29/10:30am 30.6 ESE 9 12 1013.4 - 0.0 - - - - - - -
29/10:00am 30.5 SE 10 14 1013.5 - 0.0 - - - - - - -
29/09:30am 30.0 ESE 10 12 1013.6 - 0.0 - - - - - - -
29/09:00am 29.6 SSE 9 12 1013.6 - 0.0 - - - - - - -
29/08:30am 28.3 SSE 6 10 1013.7 - 0.0 - - - - - - -
29/08:00am 26.4 S 6 7 1013.6 - 0.0 - - - - - - -
29/07:30am 25.3 SSW 4 6 1013.5 - 0.0 - - - - - - -
29/07:00am 23.7 SW 7 8 1013.4 - 0.0 - - - - - - -
29/06:30am 23.0 SW 8 9 1013.0 - 0.0 - - - - - - -
29/06:00am 22.9 SSW 7 7 1012.5 - 0.0 - - - - - - -
29/05:30am 23.5 SW 8 9 1012.4 - 0.0 - - - - - - -
29/05:00am 22.6 SSW 7 8 1012.2 - 0.0 - - - - - - -
29/04:30am 23.3 SSW 7 9 1011.9 - 0.0 - - - - - - -
29/04:00am 23.5 SW 8 9 1011.9 - 0.0 - - - - - - -
29/03:30am 23.6 SW 8 8 1011.9 - 0.0 - - - - - - -
29/03:00am 23.7 SW 8 9 1011.8 - 0.0 - - - - - - -
29/02:30am 23.4 SW 8 10 1012.0 - 0.0 - - - - - - -
29/02:00am 23.3 SW 7 8 1012.3 - 0.0 - - - - - - -
29/01:30am 23.3 SSW 7 8 1012.6 - 0.0 - - - - - - -
29/01:00am 23.7 SSW 7 8 1012.9 - 0.0 - - - - - - -
29/12:30am 24.3 SSW 7 9 1013.2 - 0.0 - - - - - - -
29/12:00am 24.4 SSW 7 9 1013.1 - 0.0 - - - - - - -
 
Date/Time
WST
Temp

°C
Wind Pressure Rain
since 9am
mm
Weather Cloud Vis
km
Sea
Height
m
Swell
Dir
 
Speed
knots
Gust
knots
hPa Trend Height
m
Period
s
Dir
28/11:30pm 24.8 SW 7 9 1013.3 - 0.0 - - - - - - -
28/11:00pm 25.2 SSW 7 9 1013.5 - 0.0 - - - - - - -
28/10:30pm 25.6 SSW 7 9 1013.5 - 0.0 - - - - - - -
28/10:00pm 26.0 SSW 7 9 1013.5 - 0.0 - - - - - - -
28/09:30pm 26.4 SSW 9 11 1013.7 - 0.0 - - - - - - -
28/09:00pm 26.0 SW 7 9 1013.4 - 0.0 - - - - - - -

Other Formats:

Comma delimited format used in spreadsheet applications
http://www.bom.gov.au/fwo/IDW60701/IDW60701.94302.axf

JavaScript Object Notation format (JSON) in row-major order
http://www.bom.gov.au/fwo/IDW60701/IDW60701.94302.json